createdAt,value
2017-11-09T00:00:52.163Z,137.00
2017-11-09T00:01:52.199Z,138.60
2017-11-09T00:02:52.236Z,127.50
2017-11-09T00:03:52.273Z,132.70
2017-11-09T00:04:52.336Z,131.70
2017-11-09T00:05:52.344Z,135.60
2017-11-09T00:06:52.402Z,130.80
2017-11-09T00:07:52.414Z,128.00
2017-11-09T00:08:52.449Z,132.90
2017-11-09T00:09:52.491Z,132.20
2017-11-09T00:10:52.537Z,131.60
2017-11-09T00:11:52.559Z,134.70
2017-11-09T00:12:52.598Z,129.80
2017-11-09T00:13:52.641Z,135.00
2017-11-09T00:14:52.674Z,132.50
2017-11-09T00:15:52.708Z,129.10
2017-11-09T00:16:52.737Z,127.10
2017-11-09T00:17:52.774Z,134.80
2017-11-09T00:18:52.810Z,131.00
2017-11-09T00:19:52.850Z,131.30
2017-11-09T00:20:52.882Z,130.30
2017-11-09T00:21:52.916Z,129.70
2017-11-09T00:22:53.006Z,132.30
2017-11-09T00:23:52.987Z,125.80
2017-11-09T00:24:53.092Z,125.30
2017-11-09T00:25:53.058Z,128.00
2017-11-09T00:26:53.097Z,130.40
2017-11-09T00:27:53.134Z,126.40
2017-11-09T00:28:53.166Z,128.10
2017-11-09T00:29:53.205Z,126.80
2017-11-09T00:30:53.237Z,127.80
2017-11-09T00:31:53.294Z,130.70
2017-11-09T00:32:53.310Z,126.80
2017-11-09T00:33:53.346Z,134.80
2017-11-09T00:34:53.383Z,130.40
2017-11-09T00:35:53.417Z,130.20
2017-11-09T00:36:53.450Z,126.40
2017-11-09T00:37:53.492Z,129.00
2017-11-09T00:38:53.526Z,126.30
2017-11-09T00:39:53.565Z,125.40
2017-11-09T00:40:53.596Z,124.60
2017-11-09T00:41:53.628Z,131.30
2017-11-09T00:42:53.665Z,121.90
2017-11-09T00:43:53.718Z,128.70
2017-11-09T00:44:53.737Z,122.20
2017-11-09T00:45:53.772Z,123.60
2017-11-09T00:46:53.806Z,122.80
2017-11-09T00:47:53.844Z,124.40
2017-11-09T00:48:53.881Z,123.20
2017-11-09T00:49:53.916Z,124.70
2017-11-09T00:50:53.952Z,122.10
2017-11-09T00:51:53.998Z,122.20
2017-11-09T00:52:54.023Z,124.40
2017-11-09T00:53:54.063Z,118.60
2017-11-09T00:54:54.094Z,125.30
2017-11-09T00:55:54.126Z,124.40
2017-11-09T00:56:54.170Z,122.00
2017-11-09T00:57:54.203Z,125.00
2017-11-09T00:58:54.235Z,129.00
2017-11-09T00:59:54.278Z,126.50
2017-11-09T01:00:54.307Z,129.50
2017-11-09T01:01:54.343Z,124.90
2017-11-09T01:02:54.387Z,126.10
2017-11-09T01:03:54.413Z,121.80
2017-11-09T01:04:54.454Z,119.30
2017-11-09T01:05:54.487Z,122.50
2017-11-09T01:06:54.524Z,122.50
2017-11-09T01:07:54.569Z,124.80
2017-11-09T01:08:54.592Z,122.20
2017-11-09T01:09:54.632Z,123.10
2017-11-09T01:10:54.683Z,130.30
2017-11-09T01:11:54.701Z,130.30
2017-11-09T01:12:54.738Z,123.70
2017-11-09T01:13:54.773Z,124.30
2017-11-09T01:14:54.808Z,124.70
2017-11-09T01:15:54.843Z,128.60
2017-11-09T01:16:54.893Z,131.40
2017-11-09T01:17:54.912Z,126.00
2017-11-09T01:18:54.982Z,130.80
2017-11-09T01:19:54.983Z,127.70
2017-11-09T01:20:55.029Z,121.40
2017-11-09T01:21:55.054Z,128.70
2017-11-09T01:22:55.096Z,125.40
2017-11-09T01:23:55.129Z,121.00
2017-11-09T01:24:55.160Z,131.20
2017-11-09T01:25:55.211Z,135.70
2017-11-09T01:26:55.234Z,127.90
2017-11-09T01:27:55.282Z,131.40
2017-11-09T01:28:55.304Z,127.20
2017-11-09T01:29:55.343Z,130.60
2017-11-09T01:30:55.380Z,128.70
2017-11-09T01:31:55.411Z,131.90
2017-11-09T01:32:55.451Z,129.90
2017-11-09T01:33:55.481Z,126.70
2017-11-09T01:34:55.521Z,128.50
2017-11-09T01:35:55.560Z,133.80
2017-11-09T01:36:55.589Z,125.30
2017-11-09T01:37:55.626Z,124.90
2017-11-09T01:38:55.662Z,122.50
2017-11-09T01:39:55.700Z,124.30
2017-11-09T01:40:55.732Z,124.80
2017-11-09T01:41:55.768Z,125.30
2017-11-09T01:42:55.804Z,120.30
2017-11-09T01:43:55.842Z,131.40
2017-11-09T01:44:55.876Z,125.00
2017-11-09T01:45:55.910Z,130.00
2017-11-09T01:46:55.944Z,131.50
2017-11-09T01:47:55.982Z,128.30
2017-11-09T01:48:56.019Z,132.40
2017-11-09T01:49:56.052Z,128.40
2017-11-09T01:50:56.091Z,124.50
2017-11-09T01:51:56.126Z,125.80
2017-11-09T01:52:56.168Z,134.90
2017-11-09T01:53:56.192Z,126.90
2017-11-09T01:54:56.230Z,124.90
2017-11-09T01:55:56.266Z,130.80
2017-11-09T01:56:56.314Z,129.10
2017-11-09T01:57:56.336Z,133.70
2017-11-09T01:58:56.371Z,129.10
2017-11-09T01:59:56.405Z,137.60
2017-11-09T02:00:56.443Z,130.30
2017-11-09T02:01:56.477Z,133.70
2017-11-09T02:02:56.513Z,127.30
2017-11-09T02:03:56.557Z,129.00
2017-11-09T02:04:56.585Z,132.50
2017-11-09T02:05:56.621Z,127.50
2017-11-09T02:06:56.665Z,134.30
2017-11-09T02:07:56.692Z,139.60
2017-11-09T02:08:56.726Z,130.80
2017-11-09T02:09:56.764Z,135.10
2017-11-09T02:10:56.797Z,129.70
2017-11-09T02:11:56.835Z,131.60
2017-11-09T02:12:56.921Z,134.00
2017-11-09T02:13:56.903Z,140.00
2017-11-09T02:14:56.947Z,130.20
2017-11-09T02:15:56.972Z,126.00
2017-11-09T02:16:57.012Z,130.80
2017-11-09T02:17:57.041Z,126.10
2017-11-09T02:18:57.082Z,128.30
2017-11-09T02:19:57.115Z,125.90
2017-11-09T02:20:57.150Z,128.50
2017-11-09T02:21:57.200Z,129.60
2017-11-09T02:22:57.223Z,128.00
2017-11-09T02:23:57.258Z,131.20
2017-11-09T02:24:57.293Z,133.40
2017-11-09T02:25:57.324Z,131.00
2017-11-09T02:26:57.361Z,136.40
2017-11-09T02:27:57.398Z,131.60
2017-11-09T02:28:57.435Z,128.00
2017-11-09T02:29:57.481Z,133.70
2017-11-09T02:30:57.503Z,131.90
2017-11-09T02:31:57.538Z,128.60
2017-11-09T02:32:57.573Z,125.70
2017-11-09T02:33:57.613Z,135.10
2017-11-09T02:34:57.646Z,127.40
2017-11-09T02:35:57.688Z,137.20
2017-11-09T02:36:57.723Z,134.10
2017-11-09T02:37:57.751Z,129.60
2017-11-09T02:38:57.788Z,133.30
2017-11-09T02:39:57.823Z,129.30
2017-11-09T02:40:57.859Z,133.20
2017-11-09T02:41:57.892Z,134.00
2017-11-09T02:42:57.928Z,129.10
2017-11-09T02:43:57.964Z,131.60
2017-11-09T02:44:58.002Z,134.70
2017-11-09T02:45:58.034Z,138.10
2017-11-09T02:46:58.074Z,132.20
2017-11-09T02:47:58.107Z,122.90
2017-11-09T02:48:58.144Z,128.10
2017-11-09T02:49:58.175Z,130.90
2017-11-09T02:50:58.214Z,138.50
2017-11-09T02:51:58.246Z,127.70
2017-11-09T02:52:58.284Z,136.60
2017-11-09T02:53:58.318Z,134.60
2017-11-09T02:54:58.358Z,132.60
2017-11-09T02:55:58.389Z,130.90
2017-11-09T02:56:58.429Z,129.10
2017-11-09T02:57:58.560Z,125.80
2017-11-09T02:58:58.510Z,132.00
2017-11-09T02:59:58.537Z,134.50
2017-11-09T03:00:58.566Z,126.30
2017-11-09T03:01:58.604Z,133.30
2017-11-09T03:02:58.636Z,129.40
2017-11-09T03:03:58.675Z,140.20
2017-11-09T03:04:58.707Z,133.70
2017-11-09T03:05:58.745Z,134.50
2017-11-09T03:06:58.878Z,129.90
2017-11-09T03:07:58.814Z,132.10
2017-11-09T03:08:58.849Z,131.60
2017-11-09T03:09:58.884Z,121.70
2017-11-09T03:10:58.919Z,123.60
2017-11-09T03:11:58.957Z,125.10
2017-11-09T03:12:58.989Z,124.20
2017-11-09T03:13:59.026Z,127.40
2017-11-09T03:14:59.060Z,128.50
2017-11-09T03:15:59.109Z,128.30
2017-11-09T03:16:59.136Z,124.70
2017-11-09T03:17:59.169Z,133.10
2017-11-09T03:18:59.208Z,127.60
2017-11-09T03:19:59.241Z,128.60
2017-11-09T03:20:59.276Z,132.40
2017-11-09T03:21:59.314Z,127.60
2017-11-09T03:22:59.345Z,120.70
2017-11-09T03:23:59.381Z,126.20
2017-11-09T03:24:59.420Z,122.90
2017-11-09T03:25:59.451Z,121.40
2017-11-09T03:26:59.495Z,121.00
2017-11-09T03:27:59.525Z,123.60
2017-11-09T03:28:59.558Z,131.60
2017-11-09T03:29:59.597Z,127.30
2017-11-09T03:30:59.633Z,118.50
2017-11-09T03:31:59.665Z,121.50
2017-11-09T03:32:59.700Z,116.50
2017-11-09T03:33:59.735Z,124.50
2017-11-09T03:34:59.771Z,126.60
2017-11-09T03:35:59.813Z,123.40
2017-11-09T03:36:59.845Z,118.70
2017-11-09T03:37:59.878Z,124.30
2017-11-09T03:38:59.920Z,126.40
2017-11-09T03:39:59.952Z,126.00
2017-11-09T03:40:59.986Z,124.90
2017-11-09T03:42:00.038Z,124.00
2017-11-09T03:43:00.060Z,119.60
2017-11-09T03:44:00.109Z,120.60
2017-11-09T03:45:00.130Z,124.00
2017-11-09T03:46:00.171Z,121.40
2017-11-09T03:47:00.214Z,126.90
2017-11-09T03:48:00.237Z,132.80
2017-11-09T03:49:00.275Z,129.90
2017-11-09T03:50:00.309Z,122.80
2017-11-09T03:51:00.345Z,120.60
2017-11-09T03:52:00.390Z,123.40
2017-11-09T03:53:00.418Z,123.30
2017-11-09T03:54:00.454Z,117.80
2017-11-09T03:55:00.493Z,117.40
2017-11-09T03:56:00.523Z,120.80
2017-11-09T03:57:00.561Z,118.80
2017-11-09T03:58:00.598Z,122.10
2017-11-09T03:59:00.635Z,126.70
2017-11-09T04:00:00.670Z,115.60
2017-11-09T04:01:00.751Z,121.10
2017-11-09T04:02:00.737Z,122.10
2017-11-09T04:03:00.778Z,119.50
2017-11-09T04:04:00.807Z,121.20
2017-11-09T04:05:00.849Z,122.30
2017-11-09T04:06:00.881Z,114.30
2017-11-09T04:07:00.917Z,123.50
2017-11-09T04:08:00.957Z,122.30
2017-11-09T04:09:00.987Z,115.20
2017-11-09T04:10:01.046Z,120.30
2017-11-09T04:11:01.059Z,120.70
2017-11-09T04:12:01.108Z,114.00
2017-11-09T04:13:01.131Z,122.20
2017-11-09T04:14:01.168Z,116.70
2017-11-09T04:15:01.200Z,116.40
2017-11-09T04:16:01.240Z,123.30
2017-11-09T04:17:01.284Z,125.60
2017-11-09T04:18:01.311Z,123.80
2017-11-09T04:19:01.349Z,115.10
2017-11-09T04:20:01.383Z,118.00
2017-11-09T04:21:01.420Z,117.00
2017-11-09T04:22:01.452Z,124.20
2017-11-09T04:23:01.489Z,117.60
2017-11-09T04:24:01.529Z,119.20
2017-11-09T04:25:01.559Z,123.40
2017-11-09T04:26:01.595Z,121.90
2017-11-09T04:27:01.630Z,116.90
2017-11-09T04:28:01.670Z,123.20
2017-11-09T04:29:01.712Z,124.30
2017-11-09T04:30:01.746Z,121.20
2017-11-09T04:31:01.773Z,124.80
2017-11-09T04:32:01.810Z,122.20
2017-11-09T04:33:01.850Z,121.70
2017-11-09T04:34:01.879Z,118.30
2017-11-09T04:35:01.916Z,127.60
2017-11-09T04:36:01.953Z,121.60
2017-11-09T04:37:01.989Z,121.10
2017-11-09T04:38:02.022Z,123.10
2017-11-09T04:39:02.067Z,120.00
2017-11-09T04:40:02.094Z,123.50
2017-11-09T04:41:02.152Z,125.90
2017-11-09T04:42:02.165Z,126.40
2017-11-09T04:43:02.203Z,121.20
2017-11-09T04:44:02.239Z,124.10
2017-11-09T04:45:02.273Z,120.10
2017-11-09T04:46:02.311Z,122.60
2017-11-09T04:47:02.343Z,124.00
2017-11-09T04:48:02.390Z,126.40
2017-11-09T04:49:02.416Z,120.40
2017-11-09T04:50:02.459Z,123.30
2017-11-09T04:51:02.490Z,131.90
2017-11-09T04:52:02.524Z,123.80
2017-11-09T04:53:02.561Z,124.80
2017-11-09T04:54:02.595Z,126.20
2017-11-09T04:55:02.690Z,125.50
2017-11-09T04:56:02.665Z,120.30
2017-11-09T04:57:02.720Z,115.20
2017-11-09T04:58:02.738Z,126.00
2017-11-09T04:59:02.775Z,123.40
2017-11-09T05:00:02.811Z,126.00
2017-11-09T05:01:02.844Z,125.50
2017-11-09T05:02:02.882Z,128.10
2017-11-09T05:03:02.921Z,122.40
2017-11-09T05:04:03.030Z,126.20
2017-11-09T05:05:02.986Z,131.00
2017-11-09T05:06:03.328Z,125.30
2017-11-09T05:07:03.057Z,124.50
2017-11-09T05:08:03.094Z,126.90
2017-11-09T05:09:03.132Z,129.30
2017-11-09T05:10:03.168Z,130.30
2017-11-09T05:11:03.202Z,136.90
2017-11-09T05:12:03.236Z,132.30
2017-11-09T05:13:03.326Z,140.60
2017-11-09T05:14:03.307Z,137.50
2017-11-09T05:15:03.359Z,136.00
2017-11-09T05:16:03.378Z,135.40
2017-11-09T05:17:03.423Z,139.60
2017-11-09T05:18:03.453Z,134.90
2017-11-09T05:19:03.485Z,138.90
2017-11-09T05:20:03.521Z,137.00
2017-11-09T05:21:03.555Z,143.80
2017-11-09T05:22:03.592Z,136.70
2017-11-09T05:23:03.627Z,143.00
2017-11-09T05:24:03.666Z,141.80
2017-11-09T05:25:03.702Z,137.70
2017-11-09T05:26:03.735Z,144.90
2017-11-09T05:27:03.773Z,142.70
2017-11-09T05:28:03.807Z,138.90
2017-11-09T05:29:03.843Z,139.90
2017-11-09T05:30:03.877Z,148.00
2017-11-09T05:31:03.912Z,139.00
2017-11-09T05:32:03.949Z,150.80
2017-11-09T05:33:03.986Z,160.70
2017-11-09T05:34:04.023Z,139.50
2017-11-09T05:35:04.056Z,148.60
2017-11-09T05:36:04.091Z,153.30
2017-11-09T05:37:04.126Z,147.50
2017-11-09T05:38:04.164Z,144.00
2017-11-09T05:39:04.196Z,146.40
2017-11-09T05:40:04.245Z,142.30
2017-11-09T05:41:04.265Z,150.10
2017-11-09T05:42:04.306Z,152.80
2017-11-09T05:43:04.340Z,150.90
2017-11-09T05:44:04.373Z,146.70
2017-11-09T05:45:04.408Z,140.60
2017-11-09T05:46:04.444Z,144.30
2017-11-09T05:47:04.483Z,154.10
2017-11-09T05:48:04.517Z,137.20
2017-11-09T05:49:04.657Z,149.10
2017-11-09T05:50:04.588Z,155.60
2017-11-09T05:51:04.674Z,157.10
2017-11-09T05:52:04.664Z,157.30
2017-11-09T05:53:04.691Z,153.70
2017-11-09T05:54:04.737Z,149.40
2017-11-09T05:55:04.767Z,150.30
2017-11-09T05:56:04.804Z,147.60
2017-11-09T05:57:04.837Z,146.60
2017-11-09T05:58:04.968Z,154.50
2017-11-09T05:59:04.904Z,153.30
2017-11-09T06:00:04.950Z,147.00
2017-11-09T06:01:04.979Z,150.20
2017-11-09T06:02:05.016Z,148.10
2017-11-09T06:03:05.051Z,149.30
2017-11-09T06:04:05.084Z,145.70
2017-11-09T06:05:05.124Z,148.10
2017-11-09T06:06:05.156Z,158.30
2017-11-09T06:07:05.210Z,148.80
2017-11-09T06:08:05.225Z,164.10
2017-11-09T06:09:05.317Z,156.00
2017-11-09T06:10:05.299Z,150.60
2017-11-09T06:11:05.342Z,142.70
2017-11-09T06:12:05.368Z,147.90
2017-11-09T06:13:05.405Z,146.00
2017-11-09T06:14:05.446Z,148.30
2017-11-09T06:15:05.475Z,156.60
2017-11-09T06:16:05.511Z,145.20
2017-11-09T06:17:05.544Z,149.10
2017-11-09T06:18:05.579Z,148.10
2017-11-09T06:19:05.620Z,154.30
2017-11-09T06:20:05.658Z,157.60
2017-11-09T06:21:05.688Z,152.90
2017-11-09T06:22:05.726Z,145.70
2017-11-09T06:23:05.758Z,144.90
2017-11-09T06:24:05.810Z,144.40
2017-11-09T06:25:05.829Z,145.80
2017-11-09T06:26:05.865Z,143.50
2017-11-09T06:27:05.901Z,139.60
2017-11-09T06:28:05.937Z,146.70
2017-11-09T06:29:05.979Z,142.60
2017-11-09T06:30:06.008Z,148.00
2017-11-09T06:31:06.047Z,143.30
2017-11-09T06:32:06.080Z,138.10
2017-11-09T06:33:06.117Z,140.90
2017-11-09T06:34:06.154Z,142.10
2017-11-09T06:35:06.187Z,139.60
2017-11-09T06:36:06.222Z,136.30
2017-11-09T06:37:06.261Z,133.40
2017-11-09T06:38:06.298Z,150.10
2017-11-09T06:39:06.334Z,138.60
2017-11-09T06:40:06.382Z,139.30
2017-11-09T06:41:06.401Z,143.30
2017-11-09T06:42:06.439Z,145.80
2017-11-09T06:43:06.552Z,141.60
2017-11-09T06:44:06.511Z,137.40
2017-11-09T06:45:06.597Z,143.30
2017-11-09T06:46:06.580Z,148.00
2017-11-09T06:47:06.617Z,140.60
2017-11-09T06:48:06.654Z,144.60
2017-11-09T06:49:06.689Z,142.30
2017-11-09T06:50:06.722Z,147.70
2017-11-09T06:51:06.757Z,145.10
2017-11-09T06:52:06.840Z,145.80
2017-11-09T06:53:06.832Z,144.80
2017-11-09T06:54:06.881Z,132.90
2017-11-09T06:55:06.902Z,144.00
2017-11-09T06:56:06.937Z,155.80
2017-11-09T06:57:06.979Z,150.00
2017-11-09T06:58:07.019Z,146.30
2017-11-09T06:59:07.047Z,142.90
2017-11-09T07:00:07.081Z,139.80
2017-11-09T07:01:07.226Z,142.80
2017-11-09T07:02:07.157Z,149.90
2017-11-09T07:03:07.216Z,149.80
2017-11-09T07:04:07.227Z,141.90
2017-11-09T07:05:07.264Z,150.10
2017-11-09T07:06:07.305Z,148.20
2017-11-09T07:07:07.331Z,141.40
2017-11-09T07:08:07.369Z,149.10
2017-11-09T07:09:07.409Z,140.30
2017-11-09T07:10:07.444Z,142.80
2017-11-09T07:11:07.474Z,145.20
2017-11-09T07:12:07.511Z,142.90
2017-11-09T07:13:07.548Z,145.20
2017-11-09T07:14:07.583Z,143.50
2017-11-09T07:15:07.633Z,142.30
2017-11-09T07:16:07.654Z,144.70
2017-11-09T07:17:07.694Z,141.80
2017-11-09T07:18:07.728Z,138.60
2017-11-09T07:19:07.762Z,135.20
2017-11-09T07:20:07.799Z,138.20
2017-11-09T07:21:07.836Z,143.00
2017-11-09T07:22:07.869Z,136.10
2017-11-09T07:23:07.910Z,141.40
2017-11-09T07:24:07.942Z,139.90
2017-11-09T07:25:07.983Z,141.60
2017-11-09T07:26:08.015Z,143.80
2017-11-09T07:27:08.050Z,134.20
2017-11-09T07:28:08.089Z,140.60
2017-11-09T07:29:08.124Z,135.20
2017-11-09T07:30:08.160Z,134.80
2017-11-09T07:31:08.194Z,133.20
2017-11-09T07:32:08.230Z,131.00
2017-11-09T07:33:08.265Z,138.60
2017-11-09T07:34:08.301Z,137.20
2017-11-09T07:35:08.340Z,142.60
2017-11-09T07:36:08.373Z,140.40
2017-11-09T07:37:08.543Z,145.90
2017-11-09T07:38:08.446Z,139.80
2017-11-09T07:39:08.536Z,136.20
2017-11-09T07:40:08.521Z,129.00
2017-11-09T07:41:08.555Z,131.90
2017-11-09T07:42:08.609Z,132.60
2017-11-09T07:43:08.629Z,131.40
2017-11-09T07:44:08.663Z,131.70
2017-11-09T07:45:08.703Z,135.80
2017-11-09T07:46:08.745Z,139.20
2017-11-09T07:47:08.780Z,131.10
2017-11-09T07:48:08.811Z,130.90
2017-11-09T07:49:08.843Z,140.10
2017-11-09T07:50:08.884Z,138.30
2017-11-09T07:51:08.915Z,143.20
2017-11-09T07:52:08.951Z,140.00
2017-11-09T07:53:08.991Z,138.80
2017-11-09T07:54:09.025Z,142.10
2017-11-09T07:55:09.182Z,141.30
2017-11-09T07:56:09.106Z,135.30
2017-11-09T07:57:09.208Z,135.00
2017-11-09T07:58:09.171Z,133.30
2017-11-09T07:59:09.211Z,136.60
2017-11-09T08:00:09.249Z,127.50
2017-11-09T08:01:09.283Z,138.10
2017-11-09T08:02:09.321Z,134.70
2017-11-09T08:03:09.366Z,132.90
2017-11-09T08:04:09.392Z,134.70
2017-11-09T08:05:09.429Z,131.80
2017-11-09T08:06:09.461Z,136.80
2017-11-09T08:07:09.502Z,134.70
2017-11-09T08:08:09.541Z,132.30
2017-11-09T08:09:09.572Z,134.90
2017-11-09T08:10:09.612Z,136.60
2017-11-09T08:11:09.644Z,126.80
2017-11-09T08:12:09.684Z,125.30
2017-11-09T08:13:09.720Z,123.10
2017-11-09T08:14:09.762Z,121.30
2017-11-09T08:15:09.793Z,128.90
2017-11-09T08:16:09.830Z,133.10
2017-11-09T08:17:09.867Z,126.10
2017-11-09T08:18:09.905Z,129.60
2017-11-09T08:19:09.943Z,128.50
2017-11-09T08:20:09.979Z,131.30
2017-11-09T08:21:10.013Z,132.80
2017-11-09T08:22:10.048Z,125.50
2017-11-09T08:23:10.084Z,131.00
2017-11-09T08:24:10.124Z,121.80
2017-11-09T08:25:10.164Z,123.70
2017-11-09T08:26:10.197Z,126.70
2017-11-09T08:27:10.233Z,126.00
2017-11-09T08:28:10.285Z,122.10
2017-11-09T08:29:10.308Z,114.10
2017-11-09T08:30:10.345Z,118.10
2017-11-09T08:31:10.391Z,120.90
2017-11-09T08:32:10.419Z,117.00
2017-11-09T08:33:10.468Z,125.70
2017-11-09T08:34:10.494Z,126.60
2017-11-09T08:35:10.834Z,130.10
2017-11-09T08:36:10.572Z,125.00
2017-11-09T08:37:10.610Z,124.30
2017-11-09T08:38:10.652Z,125.10
2017-11-09T08:39:10.680Z,131.00
2017-11-09T08:40:10.776Z,127.40
2017-11-09T08:41:10.756Z,125.10
2017-11-09T08:42:10.826Z,130.10
2017-11-09T08:43:10.830Z,127.10
2017-11-09T08:44:10.868Z,128.90
2017-11-09T08:45:10.907Z,128.00
2017-11-09T08:46:10.943Z,129.10
2017-11-09T08:47:10.986Z,125.60
2017-11-09T08:48:11.019Z,127.20
2017-11-09T08:49:11.109Z,128.70
2017-11-09T08:50:11.097Z,129.00
2017-11-09T08:51:11.129Z,129.00
2017-11-09T08:52:11.164Z,124.90
2017-11-09T08:53:11.206Z,128.20
2017-11-09T08:54:11.243Z,126.40
2017-11-09T08:55:11.278Z,129.10
2017-11-09T08:56:11.318Z,131.60
2017-11-09T08:57:11.351Z,131.70
2017-11-09T08:58:11.439Z,124.60
2017-11-09T08:59:11.425Z,130.00
2017-11-09T09:00:11.461Z,128.20
2017-11-09T09:01:11.509Z,131.50
2017-11-09T09:02:11.551Z,127.90
2017-11-09T09:03:11.582Z,124.90
2017-11-09T09:04:11.610Z,124.30
2017-11-09T09:05:11.648Z,124.00
2017-11-09T09:06:11.691Z,122.10
2017-11-09T09:07:11.727Z,124.30
2017-11-09T09:08:11.760Z,121.30
2017-11-09T09:09:11.798Z,122.30
2017-11-09T09:10:11.832Z,117.30
2017-11-09T09:11:11.875Z,121.10
2017-11-09T09:12:11.908Z,122.50
2017-11-09T09:13:11.947Z,124.10
2017-11-09T09:14:11.981Z,123.60
2017-11-09T09:15:12.019Z,115.40
2017-11-09T09:16:12.057Z,115.20
2017-11-09T09:17:12.092Z,120.80
2017-11-09T09:18:12.129Z,117.90
2017-11-09T09:19:12.171Z,117.00
2017-11-09T09:20:12.208Z,111.60
2017-11-09T09:21:12.241Z,113.60
2017-11-09T09:22:12.282Z,113.70
2017-11-09T09:23:12.320Z,117.00
2017-11-09T09:24:12.358Z,116.80
2017-11-09T09:25:12.399Z,122.40
2017-11-09T09:26:12.430Z,108.10
2017-11-09T09:27:12.469Z,114.60
2017-11-09T09:28:12.510Z,110.20
2017-11-09T09:29:12.547Z,114.40
2017-11-09T09:30:12.592Z,110.90
2017-11-09T09:31:12.621Z,112.90
2017-11-09T09:32:12.670Z,115.20
2017-11-09T09:33:12.703Z,112.30
2017-11-09T09:34:12.782Z,111.40
2017-11-09T09:35:12.769Z,109.30
2017-11-09T09:36:12.808Z,112.80
2017-11-09T09:37:12.860Z,103.60
2017-11-09T09:38:12.882Z,109.40
2017-11-09T09:39:12.920Z,107.60
2017-11-09T09:40:12.960Z,104.50
2017-11-09T09:41:13.010Z,104.00
2017-11-09T09:42:13.046Z,105.60
2017-11-09T09:43:13.102Z,108.60
2017-11-09T09:44:13.112Z,104.80
2017-11-09T09:45:13.152Z,107.00
2017-11-09T09:46:13.192Z,107.00
2017-11-09T09:47:13.230Z,103.70
2017-11-09T09:48:13.266Z,94.00
2017-11-09T09:49:13.309Z,102.80
2017-11-09T09:50:13.352Z,97.70
2017-11-09T09:51:13.383Z,96.90
2017-11-09T09:52:13.422Z,92.80
2017-11-09T09:53:13.462Z,91.80
2017-11-09T09:54:13.500Z,95.60
2017-11-09T09:55:13.548Z,97.30
2017-11-09T09:56:13.581Z,103.30
2017-11-09T09:57:13.615Z,104.30
2017-11-09T09:58:13.654Z,101.10
2017-11-09T09:59:13.692Z,100.50
2017-11-09T10:00:13.729Z,98.90
2017-11-09T10:01:13.768Z,97.50
2017-11-09T10:02:13.812Z,97.00
2017-11-09T10:03:13.844Z,99.70
2017-11-09T10:04:13.883Z,100.70
2017-11-09T10:05:13.922Z,98.30
2017-11-09T10:06:13.960Z,108.20
2017-11-09T10:07:14.003Z,99.60
2017-11-09T10:08:14.039Z,146.70
2017-11-09T10:09:14.085Z,108.30
2017-11-09T10:10:14.115Z,108.40
2017-11-09T10:11:14.152Z,94.80
2017-11-09T10:12:14.202Z,93.00
2017-11-09T10:13:14.237Z,86.10
2017-11-09T10:14:14.271Z,96.90
2017-11-09T10:15:14.310Z,98.40
2017-11-09T10:16:14.358Z,108.50
2017-11-09T10:17:14.386Z,114.70
2017-11-09T10:18:14.420Z,88.60
2017-11-09T10:19:14.458Z,86.10
2017-11-09T10:20:14.501Z,90.40
2017-11-09T10:21:14.536Z,92.20
2017-11-09T10:22:14.572Z,91.20
2017-11-09T10:23:14.611Z,91.50
2017-11-09T10:24:14.852Z,98.20
2017-11-09T10:25:14.691Z,100.90
2017-11-09T10:26:14.727Z,100.20
2017-11-09T10:27:14.761Z,98.20
2017-11-09T10:28:14.801Z,100.70
2017-11-09T10:29:14.841Z,92.00
2017-11-09T10:30:14.879Z,91.00
2017-11-09T10:31:14.920Z,85.70
2017-11-09T10:32:14.951Z,104.40
2017-11-09T10:33:15.025Z,102.10
2017-11-09T10:34:15.027Z,91.40
2017-11-09T10:35:15.086Z,83.20
2017-11-09T10:36:15.101Z,87.10
2017-11-09T10:37:15.141Z,91.50
2017-11-09T10:38:15.174Z,97.40
2017-11-09T10:39:15.224Z,94.50
2017-11-09T10:40:15.251Z,86.10
2017-11-09T10:41:15.291Z,85.00
2017-11-09T10:42:15.338Z,84.30
2017-11-09T10:43:15.362Z,81.30
2017-11-09T10:44:15.405Z,88.60
2017-11-09T10:45:15.440Z,86.80
2017-11-09T10:46:15.477Z,86.20
2017-11-09T10:47:15.513Z,92.50
2017-11-09T10:48:15.551Z,90.40
2017-11-09T10:49:15.586Z,94.60
2017-11-09T10:50:15.626Z,92.60
2017-11-09T10:51:15.675Z,90.90
2017-11-09T10:52:15.704Z,87.50
2017-11-09T10:53:15.736Z,90.10
2017-11-09T10:54:15.772Z,90.40
2017-11-09T10:55:15.812Z,90.90
2017-11-09T10:56:15.849Z,96.80
2017-11-09T10:57:15.887Z,88.20
2017-11-09T10:58:15.921Z,87.50
2017-11-09T10:59:15.962Z,95.30
2017-11-09T11:00:15.996Z,90.60
2017-11-09T11:01:16.034Z,89.40
2017-11-09T11:02:16.073Z,90.10
2017-11-09T11:03:16.110Z,87.90
2017-11-09T11:04:16.149Z,88.90
2017-11-09T11:05:16.185Z,88.30
2017-11-09T11:06:16.218Z,88.80
2017-11-09T11:07:16.260Z,87.00
2017-11-09T11:08:16.310Z,85.80
2017-11-09T11:09:16.332Z,93.40
2017-11-09T11:10:16.365Z,91.20
2017-11-09T11:11:16.403Z,90.80
2017-11-09T11:12:16.444Z,88.10
2017-11-09T11:13:16.483Z,97.00
2017-11-09T11:14:16.515Z,97.40
2017-11-09T11:15:16.553Z,93.70
2017-11-09T11:16:16.675Z,93.90
2017-11-09T11:17:16.625Z,89.50
2017-11-09T11:18:16.706Z,87.30
2017-11-09T11:19:16.709Z,81.10
2017-11-09T11:20:16.744Z,86.90
2017-11-09T11:21:16.778Z,89.40
2017-11-09T11:22:16.814Z,86.10
2017-11-09T11:23:16.849Z,86.00
2017-11-09T11:24:16.887Z,78.60
2017-11-09T11:25:16.941Z,84.00
2017-11-09T11:26:16.968Z,78.80
2017-11-09T11:27:17.016Z,80.50
2017-11-09T11:28:17.046Z,79.00
2017-11-09T11:29:17.074Z,82.50
2017-11-09T11:30:17.111Z,84.80
2017-11-09T11:31:17.148Z,81.50
2017-11-09T11:32:17.190Z,83.40
2017-11-09T11:33:17.226Z,81.50
2017-11-09T11:34:17.338Z,80.30
2017-11-09T11:35:17.300Z,78.90
2017-11-09T11:36:17.338Z,80.10
2017-11-09T11:37:17.370Z,82.00
2017-11-09T11:38:17.407Z,77.10
2017-11-09T11:39:17.444Z,81.50
2017-11-09T11:40:17.480Z,82.20
2017-11-09T11:41:17.518Z,78.60
2017-11-09T11:42:17.555Z,77.50
2017-11-09T11:43:17.590Z,80.30
2017-11-09T11:44:17.631Z,77.50
2017-11-09T11:45:17.666Z,73.00
2017-11-09T11:46:17.706Z,79.90
2017-11-09T11:47:17.741Z,83.10
2017-11-09T11:48:17.777Z,80.40
2017-11-09T11:49:17.815Z,83.00
2017-11-09T11:50:17.852Z,86.50
2017-11-09T11:51:17.889Z,84.50
2017-11-09T11:52:17.928Z,86.00
2017-11-09T11:53:17.962Z,86.40
2017-11-09T11:54:17.998Z,90.60
2017-11-09T11:55:18.037Z,92.90
2017-11-09T11:56:18.075Z,96.80
2017-11-09T11:57:18.115Z,97.60
2017-11-09T11:58:18.151Z,96.60
2017-11-09T11:59:18.181Z,92.70
2017-11-09T12:00:18.221Z,93.90
2017-11-09T12:01:18.263Z,93.20
2017-11-09T12:02:18.294Z,90.00
2017-11-09T12:03:18.328Z,90.30
2017-11-09T12:04:18.368Z,87.60
2017-11-09T12:05:18.405Z,86.10
2017-11-09T12:06:18.440Z,96.60
2017-11-09T12:07:18.483Z,82.00
2017-11-09T12:08:18.518Z,81.50
2017-11-09T12:09:18.550Z,86.70
2017-11-09T12:10:18.652Z,84.80
2017-11-09T12:11:18.623Z,88.50
2017-11-09T12:12:18.668Z,87.90
2017-11-09T12:13:18.699Z,83.80
2017-11-09T12:14:18.736Z,89.60
2017-11-09T12:15:18.772Z,82.90
2017-11-09T12:16:18.806Z,84.10
2017-11-09T12:17:18.844Z,87.80
2017-11-09T12:18:18.877Z,90.90
2017-11-09T12:19:18.922Z,84.50
2017-11-09T12:20:18.950Z,89.90
2017-11-09T12:21:18.988Z,85.80
2017-11-09T12:22:19.028Z,83.10
2017-11-09T12:23:19.062Z,83.20
2017-11-09T12:24:19.110Z,79.80
2017-11-09T12:25:19.132Z,74.80
2017-11-09T12:26:19.173Z,70.90
2017-11-09T12:27:19.208Z,82.60
2017-11-09T12:28:19.250Z,69.80
2017-11-09T12:29:19.281Z,73.50
2017-11-09T12:30:19.318Z,70.50
2017-11-09T12:31:19.351Z,77.70
2017-11-09T12:32:19.389Z,70.20
2017-11-09T12:33:19.433Z,71.50
2017-11-09T12:34:19.461Z,71.90